CheckWX is a tool to help pilots better visualize weather data.  It is not intended as a substitute for an official pre-flight weather briefing.

05:20:10 UTC

ENVD METAR
Vadsø Airport
Vadsø, Norway
Current

30 mins ago

ENVD 200450Z 35005KT 9999 FEW010 SCT025 M11/M15 Q0999
Observed
Feb-20 @ 04:50 UTC
Wind
  • 350° at 5 KTS
Visibility
10,000+ meters
Flight Rules
VFR
Cloud Levels
  • Few at 1,000' AGL
  • Scattered at 2,500' AGL
Temperature
-11°C / 12°F
Dewpoint
-15°C / 5°F
Humidity
73%
Altimeter
29.5" Hg
Pressure
998.92 hPa
Previous

60 mins ago

ENVD 200420Z 36005KT 9999 FEW010 SCT025 M10/M13 Q0999
Observed
Feb-20 @ 04:20 UTC
Wind
  • 360° at 5 KTS
Visibility
10,000+ meters
Flight Rules
VFR
Cloud Levels
  • Few at 1,000' AGL
  • Scattered at 2,500' AGL
Temperature
-10°C / 14°F
Dewpoint
-13°C / 9°F
Humidity
79%
Altimeter
29.5" Hg
Pressure
998.92 hPa
Previous

2 hours ago

ENVD 200350Z 36006KT 9999 FEW010 SCT025 M10/M13 Q0999
Observed
Feb-20 @ 03:50 UTC
Wind
  • 360° at 6 KTS
Visibility
10,000+ meters
Flight Rules
VFR
Cloud Levels
  • Few at 1,000' AGL
  • Scattered at 2,500' AGL
Temperature
-10°C / 14°F
Dewpoint
-13°C / 9°F
Humidity
79%
Altimeter
29.5" Hg
Pressure
998.92 hPa